Time;durP1;ratioP1;P1;durP2;ratioP2;P2;SDS_P1;SDS_P2;PMS_P1;PMS_P2;Temp;Humidity;BMP_temperature;BMP_pressure;BME280_temperature;BME280_humidity;BME280_pressure;Samples;Min_cycle;Max_cycle;Signal;HPM_P1;HPM_P2
2023/03/16 00:04:15;;;;;;;30.8;16.3;;;;;;;1.3;74.4;98910;;;;
2023/03/16 00:14:15;;;;;;;30.8;16.3;;;;;;;0.9;74.5;98920;;;;
2023/03/16 00:24:17;;;;;;;30.8;16.3;;;;;;;0.5;74.9;98940;;;;
2023/03/16 00:35:15;;;;;;;34.3;16.9;;;;;;;0.1;75.8;98950;;;;
2023/03/16 00:45:15;;;;;;;34.3;16.9;;;;;;;-0.2;76.2;98950;;;;
2023/03/16 00:56:15;;;;;;;34.3;16.9;;;;;;;-0.4;77.5;98960;;;;
2023/03/16 01:06:15;;;;;;;25.8;15.4;;;;;;;-0.6;78.3;98960;;;;
2023/03/16 01:17:15;;;;;;;25.8;15.4;;;;;;;-0.8;78.9;98970;;;;
2023/03/16 01:28:15;;;;;;;25.8;15.4;;;;;;;-0.9;79.9;98980;;;;
2023/03/16 01:38:15;;;;;;;31.8;17;;;;;;;-1;80.5;98980;;;;
2023/03/16 01:48:15;;;;;;;31.8;17;;;;;;;-1.1;81.1;99000;;;;
2023/03/16 01:59:15;;;;;;;31.8;17;;;;;;;-1.1;82.2;99000;;;;
2023/03/16 02:09:15;;;;;;;29;17.4;;;;;;;-1.1;82.9;99010;;;;
2023/03/16 02:20:15;;;;;;;29;17.4;;;;;;;-1.1;84.1;99020;;;;
2023/03/16 02:30:15;;;;;;;29;17.4;;;;;;;-1.2;83.6;99020;;;;
2023/03/16 02:41:15;;;;;;;26.4;16.4;;;;;;;-1.3;83.5;99040;;;;
2023/03/16 02:51:15;;;;;;;26.4;16.4;;;;;;;-1.4;83.4;99050;;;;
2023/03/16 03:01:15;;;;;;;26.4;16.4;;;;;;;-1.4;84.3;99060;;;;
2023/03/16 03:12:15;;;;;;;30.4;18.2;;;;;;;-1.4;84.6;99070;;;;
2023/03/16 03:22:17;;;;;;;30.4;18.2;;;;;;;-1.5;84.6;99080;;;;
2023/03/16 03:33:15;;;;;;;30.4;18.2;;;;;;;-1.5;85.2;99090;;;;
2023/03/16 03:44:15;;;;;;;32.3;18.2;;;;;;;-1.5;85.2;99110;;;;
2023/03/16 03:54:15;;;;;;;32.3;18.2;;;;;;;-1.6;85.5;99120;;;;
2023/03/16 04:05:15;;;;;;;32.2;18.5;;;;;;;-1.6;85.5;99130;;;;
2023/03/16 04:16:16;;;;;;;32.2;18.5;;;;;;;-1.7;85.9;99140;;;;
2023/03/16 04:26:15;;;;;;;32.2;18.5;;;;;;;-1.7;86.3;99150;;;;
2023/03/16 04:37:15;;;;;;;25.9;16.7;;;;;;;-1.7;86.6;99160;;;;
2023/03/16 04:48:15;;;;;;;25.9;16.7;;;;;;;-1.8;86.7;99160;;;;
2023/03/16 04:58:15;;;;;;;25.9;16.7;;;;;;;-1.8;87.1;99170;;;;
2023/03/16 05:08:15;;;;;;;31.5;19.3;;;;;;;-1.8;87.2;99170;;;;
2023/03/16 05:19:15;;;;;;;31.5;19.3;;;;;;;-1.8;87;99180;;;;
2023/03/16 05:30:15;;;;;;;31.5;19.3;;;;;;;-1.8;87.1;99190;;;;
2023/03/16 05:40:15;;;;;;;27.2;19.2;;;;;;;-1.6;87.3;99190;;;;
2023/03/16 05:51:15;;;;;;;27.2;19.2;;;;;;;-1.3;87.2;99200;;;;
2023/03/16 06:01:15;;;;;;;27.2;19.2;;;;;;;-1;87.2;99210;;;;
2023/03/16 06:11:15;;;;;;;30.8;15.7;;;;;;;-0.7;87;99210;;;;
2023/03/16 06:22:15;;;;;;;30.8;15.7;;;;;;;-0.3;86.5;99230;;;;
2023/03/16 06:32:15;;;;;;;30.8;15.7;;;;;;;0.1;86.1;99240;;;;
2023/03/16 06:43:15;;;;;;;29.3;15.7;;;;;;;0.4;85;99250;;;;
2023/03/16 06:54:15;;;;;;;29.3;15.7;;;;;;;0.7;84.6;99260;;;;
2023/03/16 07:04:15;;;;;;;31.4;17.2;;;;;;;1.1;84.3;99270;;;;
2023/03/16 07:14:16;;;;;;;31.4;17.2;;;;;;;1.3;83.5;99280;;;;
2023/03/16 07:24:15;;;;;;;31.4;17.2;;;;;;;1.6;82.6;99280;;;;
2023/03/16 07:34:15;;;;;;;35.9;19.9;;;;;;;1.9;82;99290;;;;
2023/03/16 07:44:15;;;;;;;35.9;19.9;;;;;;;2.3;80.7;99290;;;;
2023/03/16 07:54:15;;;;;;;35.9;19.9;;;;;;;2.6;79.1;99300;;;;
2023/03/16 08:05:15;;;;;;;30.5;17.9;;;;;;;3.1;78.4;99300;;;;
2023/03/16 08:15:15;;;;;;;30.5;17.9;;;;;;;3.3;76.1;99300;;;;
2023/03/16 08:26:16;;;;;;;30.5;17.9;;;;;;;3.5;75.2;99310;;;;
2023/03/16 08:36:15;;;;;;;29.6;17.8;;;;;;;4.1;74.2;99310;;;;
2023/03/16 08:46:15;;;;;;;29.6;17.8;;;;;;;4.2;72.8;99310;;;;
2023/03/16 08:57:16;;;;;;;29.6;17.8;;;;;;;4.6;71.7;99310;;;;
2023/03/16 09:07:15;;;;;;;24.4;15.9;;;;;;;4.9;69.7;99320;;;;
2023/03/16 09:18:17;;;;;;;24.4;15.9;;;;;;;5.1;67.5;99310;;;;
2023/03/16 09:29:15;;;;;;;24.4;15.9;;;;;;;5.8;65.2;99310;;;;
2023/03/16 09:39:15;;;;;;;29.1;14.1;;;;;;;6.1;62.7;99310;;;;
2023/03/16 09:49:15;;;;;;;29.1;14.1;;;;;;;6.2;62.9;99310;;;;
2023/03/16 09:59:17;;;;;;;29.1;14.1;;;;;;;6.9;58.3;99310;;;;
2023/03/16 10:09:15;;;;;;;15.4;12.1;;;;;;;7.7;56.2;99310;;;;
2023/03/16 10:19:15;;;;;;;15.4;12.1;;;;;;;7.2;55;99320;;;;
2023/03/16 10:29:15;;;;;;;15.4;12.1;;;;;;;7;55.9;99330;;;;
2023/03/16 10:39:15;;;;;;;15.2;9.2;;;;;;;6.8;53.7;99330;;;;
2023/03/16 10:50:15;;;;;;;15.2;9.2;;;;;;;6.3;54.6;99330;;;;
2023/03/16 11:00:19;;;;;;;15.2;9.2;;;;;;;6.9;53.5;99330;;;;
2023/03/16 11:10:15;;;;;;;12;7.6;;;;;;;7.3;52.7;99320;;;;
2023/03/16 11:21:16;;;;;;;12;7.6;;;;;;;7.4;53.5;99330;;;;
2023/03/16 11:32:15;;;;;;;14.4;8.4;;;;;;;7.1;55.1;99340;;;;
2023/03/16 11:43:15;;;;;;;14.4;8.4;;;;;;;6.9;55.7;99330;;;;
2023/03/16 11:53:16;;;;;;;14.4;8.4;;;;;;;7.4;53.7;99320;;;;
2023/03/16 12:03:16;;;;;;;11.2;7.6;;;;;;;7.4;52;99320;;;;
2023/03/16 12:13:15;;;;;;;11.2;7.6;;;;;;;7.3;52.7;99320;;;;
2023/03/16 12:24:15;;;;;;;11.2;7.6;;;;;;;7.6;55;99330;;;;
2023/03/16 12:34:16;;;;;;;15.6;6.2;;;;;;;7.8;51.9;99320;;;;
2023/03/16 12:44:16;;;;;;;15.6;6.2;;;;;;;7.6;51.3;99320;;;;
2023/03/16 12:54:15;;;;;;;15.6;6.2;;;;;;;7.1;54.4;99320;;;;
2023/03/16 13:05:15;;;;;;;9.4;5.5;;;;;;;7.7;50.8;99310;;;;
2023/03/16 13:15:16;;;;;;;9.4;5.5;;;;;;;7.9;50.3;99320;;;;
2023/03/16 13:26:15;;;;;;;9.4;5.5;;;;;;;8.4;49.8;99320;;;;
2023/03/16 13:37:15;;;;;;;8.9;5.8;;;;;;;8;48.4;99320;;;;
2023/03/16 13:47:15;;;;;;;8.9;5.8;;;;;;;7.9;48.4;99320;;;;
2023/03/16 13:57:15;;;;;;;8.9;5.8;;;;;;;7.7;47.7;99320;;;;
2023/03/16 14:08:15;;;;;;;12.1;5.9;;;;;;;7.5;49.1;99330;;;;
2023/03/16 14:18:20;;;;;;;12.1;5.9;;;;;;;7.1;49.5;99330;;;;
2023/03/16 14:29:15;;;;;;;12.1;5.9;;;;;;;7.3;49.3;99320;;;;
2023/03/16 14:39:15;;;;;;;9.8;4.5;;;;;;;7.7;48.6;99330;;;;
2023/03/16 14:49:15;;;;;;;9.8;4.5;;;;;;;8;47.4;99340;;;;
2023/03/16 15:00:15;;;;;;;9.8;4.5;;;;;;;8;47.8;99340;;;;
2023/03/16 15:11:20;;;;;;;7.5;4;;;;;;;7.6;48.5;99340;;;;
2023/03/16 15:21:15;;;;;;;7.5;4;;;;;;;7.4;49.4;99340;;;;
2023/03/16 15:32:15;;;;;;;7.6;4.2;;;;;;;6.4;50.6;99340;;;;
2023/03/16 15:42:15;;;;;;;7.6;4.2;;;;;;;6.3;52;99340;;;;
2023/03/16 15:53:15;;;;;;;7.6;4.2;;;;;;;7;51.1;99350;;;;
2023/03/16 16:03:15;;;;;;;11.2;4.2;;;;;;;8.4;48.8;99340;;;;
2023/03/16 16:13:16;;;;;;;11.2;4.2;;;;;;;9.1;46;99360;;;;
2023/03/16 16:23:16;;;;;;;11.2;4.2;;;;;;;8.2;47.2;99360;;;;
2023/03/16 16:34:16;;;;;;;10.9;6.6;;;;;;;7.1;49.3;99370;;;;
2023/03/16 16:44:15;;;;;;;10.9;6.6;;;;;;;6;51.5;99380;;;;
2023/03/16 16:54:15;;;;;;;10.9;6.6;;;;;;;5.1;52.9;99390;;;;
2023/03/16 17:04:16;;;;;;;12.8;6.1;;;;;;;4.3;55.3;99390;;;;
2023/03/16 17:15:15;;;;;;;12.8;6.1;;;;;;;3.5;56.6;99410;;;;
2023/03/16 17:25:15;;;;;;;12.8;6.1;;;;;;;2.9;57.8;99410;;;;
2023/03/16 17:36:15;;;;;;;10.4;6.5;;;;;;;2.4;59.9;99410;;;;
2023/03/16 17:46:15;;;;;;;10.4;6.5;;;;;;;1.9;61.9;99420;;;;
2023/03/16 17:56:15;;;;;;;10.4;6.5;;;;;;;1.6;63.5;99430;;;;
2023/03/16 18:07:15;;;;;;;25.5;15;;;;;;;1.1;64.3;99430;;;;
2023/03/16 18:18:15;;;;;;;25.5;15;;;;;;;0.7;65.6;99440;;;;
2023/03/16 18:28:15;;;;;;;25.5;15;;;;;;;0.5;66.7;99440;;;;
2023/03/16 18:39:15;;;;;;;17.3;10.8;;;;;;;0.2;67.4;99450;;;;
2023/03/16 18:50:16;;;;;;;17.3;10.8;;;;;;;0.2;68.2;99460;;;;
2023/03/16 19:00:16;;;;;;;17.3;10.8;;;;;;;0.4;68.7;99470;;;;
2023/03/16 19:11:16;;;;;;;18.2;12;;;;;;;0.3;68.5;99480;;;;
2023/03/16 19:21:15;;;;;;;18.2;12;;;;;;;0.2;68.8;99490;;;;
2023/03/16 19:32:15;;;;;;;21.1;11.4;;;;;;;0;69.2;99490;;;;
2023/03/16 19:43:16;;;;;;;21.1;11.4;;;;;;;0;69.4;99500;;;;
2023/03/16 19:53:16;;;;;;;21.1;11.4;;;;;;;0.1;70;99500;;;;
2023/03/16 20:03:15;;;;;;;19.6;11.8;;;;;;;-0.1;69.9;99510;;;;
2023/03/16 20:13:15;;;;;;;19.6;11.8;;;;;;;-0.4;69.9;99510;;;;
2023/03/16 20:23:16;;;;;;;19.6;11.8;;;;;;;-0.6;70.1;99520;;;;
2023/03/16 20:34:15;;;;;;;22.8;12.7;;;;;;;-0.8;70.9;99520;;;;
2023/03/16 20:45:16;;;;;;;22.8;12.7;;;;;;;-1.1;71.4;99520;;;;
2023/03/16 20:55:15;;;;;;;22.8;12.7;;;;;;;-1.2;71.9;99520;;;;
2023/03/16 21:05:15;;;;;;;18.4;10.7;;;;;;;-1.3;72.4;99520;;;;
2023/03/16 21:16:15;;;;;;;18.4;10.7;;;;;;;-1.3;73.1;99520;;;;
2023/03/16 21:26:16;;;;;;;18.4;10.7;;;;;;;-1.5;73.1;99530;;;;
2023/03/16 21:36:15;;;;;;;20.4;10.5;;;;;;;-1.6;73.2;99520;;;;
2023/03/16 21:46:16;;;;;;;20.4;10.5;;;;;;;-1.8;73.4;99520;;;;
2023/03/16 21:57:15;;;;;;;20.4;10.5;;;;;;;-1.9;73.8;99530;;;;
2023/03/16 22:08:15;;;;;;;17.2;8.5;;;;;;;-2.1;74.1;99540;;;;
2023/03/16 22:18:15;;;;;;;17.2;8.5;;;;;;;-2.2;74.4;99540;;;;
2023/03/16 22:29:15;;;;;;;17.2;8.5;;;;;;;-2.2;76.9;99530;;;;
2023/03/16 22:40:15;;;;;;;20.9;10.4;;;;;;;-2.3;76.6;99520;;;;
2023/03/16 22:50:16;;;;;;;20.9;10.4;;;;;;;-2.3;77.1;99520;;;;
2023/03/16 23:01:16;;;;;;;14.5;9.3;;;;;;;-2.4;77.3;99520;;;;
2023/03/16 23:11:16;;;;;;;14.5;9.3;;;;;;;-2.4;78.4;99510;;;;
2023/03/16 23:21:15;;;;;;;14.5;9.3;;;;;;;-2.5;77.9;99510;;;;
2023/03/16 23:32:15;;;;;;;19.9;11.1;;;;;;;-2.6;77.7;99500;;;;
2023/03/16 23:42:15;;;;;;;19.9;11.1;;;;;;;-2.7;78.5;99500;;;;
2023/03/16 23:53:16;;;;;;;19.9;11.1;;;;;;;-2.7;79.1;99510;;;;
